Time;durP1;ratioP1;P1;durP2;ratioP2;P2;SDS_P1;SDS_P2;PMS_P1;PMS_P2;Temp;Humidity;BMP_temperature;BMP_pressure;BME280_temperature;BME280_humidity;BME280_pressure;Samples;Min_cycle;Max_cycle;Signal;HPM_P1;HPM_P2
2024/01/11 00:01:55;;;;;;;3.65;1.42;;;;;;;-5.64;64.49;98266.13;4968332;28;20043;-74
2024/01/11 00:04:21;;;;;;;5.70;1.65;;;;;;;-5.78;63.83;98235.28;4954223;28;20726;-73
2024/01/11 00:06:47;;;;;;;3.05;1.10;;;;;;;-5.66;64.55;98235.63;4944814;29;20086;-74
2024/01/11 00:09:16;;;;;;;2.13;0.98;;;;;;;-5.88;64.63;98191.06;4953569;29;20047;-73
2024/01/11 00:11:51;;;;;;;2.30;1.40;;;;;;;-6.13;64.04;98141.31;4950872;29;20065;-75
2024/01/11 00:14:26;;;;;;;3.50;1.40;;;;;;;-5.58;64.74;98207.97;4950681;28;20047;-74
2024/01/11 00:16:53;;;;;;;2.33;1.20;;;;;;;-5.64;64.83;98177.41;4952992;29;20042;-74
2024/01/11 00:19:22;;;;;;;6.63;2.47;;;;;;;-5.46;64.90;98200.75;4951701;29;20597;-75
2024/01/11 00:21:48;;;;;;;5.90;3.17;;;;;;;-5.59;64.92;98153.03;4953215;28;20043;-75
2024/01/11 00:24:17;;;;;;;3.28;1.75;;;;;;;-5.99;64.69;98078.38;4944868;28;20053;-73
2024/01/11 00:26:46;;;;;;;3.20;1.15;;;;;;;-5.40;65.35;98176.38;4969850;28;20049;-75
2024/01/11 00:29:12;;;;;;;4.13;2.03;;;;;;;-6.54;65.28;97972.16;4952555;28;20457;-75
2024/01/11 00:31:38;;;;;;;3.42;1.15;;;;;;;-5.50;64.95;98127.06;4972121;28;20051;-75
2024/01/11 00:34:05;;;;;;;4.03;1.75;;;;;;;-5.39;65.09;98135.88;4975053;28;20066;-76
2024/01/11 00:36:32;;;;;;;2.50;1.00;;;;;;;-5.37;65.27;98130.81;4971829;28;20434;-74
2024/01/11 00:39:01;;;;;;;2.88;0.98;;;;;;;-6.07;65.11;97995.44;4971808;28;20504;-75
2024/01/11 00:41:33;;;;;;;5.70;2.38;;;;;;;-5.36;65.68;98122.41;4956638;28;20070;-76
2024/01/11 00:44:02;;;;;;;2.17;1.38;;;;;;;-5.90;65.51;98007.72;4964652;28;20051;-75
2024/01/11 00:46:32;;;;;;;5.65;3.00;;;;;;;-5.29;66.15;98094.72;4958794;28;20185;-75
2024/01/11 00:49:05;;;;;;;4.70;2.20;;;;;;;-5.65;65.56;98033.75;4960262;28;20334;-76
2024/01/11 00:51:33;;;;;;;5.20;1.77;;;;;;;-5.25;65.94;98069.44;4972924;28;20058;-77
2024/01/11 00:53:59;;;;;;;4.05;1.55;;;;;;;-5.30;65.34;98087.94;4956242;28;20043;-76
2024/01/11 00:56:27;;;;;;;4.93;2.20;;;;;;;-5.31;66.29;98070.13;4956197;28;20039;-73
2024/01/11 00:58:53;;;;;;;3.97;1.88;;;;;;;-5.36;66.22;98018.44;4954032;28;20038;-73
2024/01/11 01:01:20;;;;;;;1.25;0.75;;;;;;;-5.38;65.83;98013.34;4978143;28;20041;-73
2024/01/11 01:03:49;;;;;;;3.72;1.92;;;;;;;-5.57;66.73;97968.88;4964034;28;20047;-73
2024/01/11 01:06:15;;;;;;;2.85;0.90;;;;;;;-5.87;66.42;97916.59;4960134;28;20090;-74
2024/01/11 01:08:52;;;;;;;3.72;1.80;;;;;;;-5.76;66.57;97910.13;4930152;28;20039;-72
2024/01/11 01:11:21;;;;;;;1.67;1.10;;;;;;;-5.35;66.35;97969.44;4973588;28;20069;-73
2024/01/11 01:13:47;;;;;;;4.30;2.15;;;;;;;-5.30;66.22;97971.28;4975364;28;20097;-73
2024/01/11 01:16:17;;;;;;;1.88;0.55;;;;;;;-5.16;66.74;97964.00;4975309;28;20043;-74
2024/01/11 01:18:43;;;;;;;1.63;0.98;;;;;;;-5.16;66.79;97953.84;4968241;28;20047;-74
2024/01/11 01:21:10;;;;;;;1.52;1.25;;;;;;;-5.07;67.06;97937.97;4976680;28;20039;-74
2024/01/11 01:23:41;;;;;;;4.95;1.10;;;;;;;-5.19;66.87;97910.69;4975708;28;20061;-74
2024/01/11 01:26:07;;;;;;;3.47;0.95;;;;;;;-5.12;67.16;97900.66;4976403;28;20047;-79
2024/01/11 01:28:36;;;;;;;2.17;0.73;;;;;;;-4.86;67.14;97926.66;4961367;28;20040;-71
2024/01/11 01:31:02;;;;;;;1.15;1.02;;;;;;;-4.85;66.83;97916.50;4975840;28;20405;-72
2024/01/11 01:33:40;;;;;;;1.73;0.80;;;;;;;-4.51;66.79;97929.09;4945520;28;20042;-71
2024/01/11 01:36:11;;;;;;;1.00;0.77;;;;;;;-4.83;67.56;97855.63;4975149;28;20097;-72
2024/01/11 01:38:40;;;;;;;3.13;1.85;;;;;;;-5.02;67.50;97829.88;4945939;28;20485;-71
2024/01/11 01:41:09;;;;;;;2.80;1.20;;;;;;;-4.84;67.35;97834.47;4973812;28;20137;-73
2024/01/11 01:43:35;;;;;;;1.63;0.98;;;;;;;-4.33;67.63;97900.69;4977523;28;20051;-72
2024/01/11 01:46:03;;;;;;;2.67;1.30;;;;;;;-4.59;67.42;97829.91;4942781;28;20039;-72
2024/01/11 01:48:35;;;;;;;3.72;2.20;;;;;;;-4.19;68.12;97874.69;4958219;28;20039;-72
2024/01/11 01:51:11;;;;;;;1.90;1.30;;;;;;;-4.18;67.77;97856.06;4975525;28;20047;-72
2024/01/11 01:53:38;;;;;;;1.67;1.10;;;;;;;-4.10;67.87;97850.31;4957794;28;20086;-72
2024/01/11 01:56:06;;;;;;;3.88;1.08;;;;;;;-4.03;68.10;97841.09;4958746;28;20043;-73
2024/01/11 01:58:36;;;;;;;1.73;1.25;;;;;;;-4.13;67.86;97827.38;4961587;28;20097;-73
2024/01/11 02:01:08;;;;;;;2.17;1.38;;;;;;;-3.82;68.68;97847.38;4974182;28;20544;-72
2024/01/11 02:03:38;;;;;;;3.70;1.70;;;;;;;-3.79;68.20;97827.97;4944403;28;20050;-73
2024/01/11 02:06:09;;;;;;;2.67;1.20;;;;;;;-3.96;68.04;97787.03;4972889;28;20051;-72
2024/01/11 02:08:36;;;;;;;3.80;1.48;;;;;;;-4.08;68.17;97743.59;4943702;28;20077;-73
2024/01/11 02:11:06;;;;;;;6.13;2.85;;;;;;;-4.70;67.98;97628.31;4972765;28;20094;-72
2024/01/11 02:13:40;;;;;;;4.88;1.30;;;;;;;-3.59;68.69;97791.84;4958726;28;20389;-72
2024/01/11 02:16:07;;;;;;;5.45;1.33;;;;;;;-4.16;68.77;97692.66;4960751;28;20043;-72
2024/01/11 02:18:33;;;;;;;5.90;2.08;;;;;;;-3.42;69.00;97789.53;4956941;28;20042;-72
2024/01/11 02:21:02;;;;;;;2.20;0.85;;;;;;;-3.83;68.88;97713.50;4956724;28;20039;-72
2024/01/11 02:23:30;;;;;;;1.30;1.02;;;;;;;-3.51;68.86;97744.47;4953169;29;20082;-71
2024/01/11 02:25:59;;;;;;;4.15;1.58;;;;;;;-3.47;69.15;97740.31;4969462;28;20055;-71
2024/01/11 02:28:25;;;;;;;1.27;0.68;;;;;;;-3.85;68.72;97654.16;4957198;29;20042;-71
2024/01/11 02:30:51;;;;;;;0.93;0.40;;;;;;;-3.31;69.45;97727.81;4953714;28;20472;-71
2024/01/11 02:33:21;;;;;;;2.17;0.75;;;;;;;-3.27;69.26;97711.75;4969402;28;20039;-71
2024/01/11 02:35:47;;;;;;;2.00;1.00;;;;;;;-3.26;69.40;97704.13;4970417;28;20081;-72
2024/01/11 02:38:21;;;;;;;1.42;0.70;;;;;;;-3.57;69.77;97634.22;4953723;28;20054;-72
2024/01/11 02:40:49;;;;;;;5.47;2.55;;;;;;;-3.15;69.53;97686.44;4952718;28;20062;-72
2024/01/11 02:43:27;;;;;;;2.33;1.15;;;;;;;-3.13;69.19;97681.38;4941229;29;20039;-71
2024/01/11 02:45:58;;;;;;;3.67;2.05;;;;;;;-3.01;69.92;97701.03;4955152;29;20045;-72
2024/01/11 02:48:30;;;;;;;1.60;1.00;;;;;;;-2.76;69.82;97712.34;4954839;29;20080;-71
2024/01/11 02:51:02;;;;;;;2.78;1.23;;;;;;;-2.83;69.69;97682.56;4965789;28;20047;-72
2024/01/11 02:53:33;;;;;;;2.00;1.02;;;;;;;-3.21;70.82;97635.50;4955999;29;20047;-70
2024/01/11 02:56:04;;;;;;;2.22;1.25;;;;;;;-2.64;69.89;97693.78;4957039;29;20071;-72
2024/01/11 02:58:30;;;;;;;3.17;1.40;;;;;;;-2.58;70.21;97689.63;4941225;29;20058;-71
2024/01/11 03:01:01;;;;;;;1.52;0.88;;;;;;;-2.68;70.36;97657.28;4956407;29;20315;-73
2024/01/11 03:03:32;;;;;;;1.13;0.95;;;;;;;-2.90;70.32;97616.31;4969661;28;20101;-71
2024/01/11 03:05:58;;;;;;;2.47;1.40;;;;;;;-3.20;70.47;97564.28;4939956;29;20051;-72
2024/01/11 03:08:26;;;;;;;2.38;1.17;;;;;;;-2.59;70.88;97653.97;4955232;28;20039;-72
2024/01/11 03:10:52;;;;;;;2.15;0.95;;;;;;;-2.55;70.94;97626.81;4956169;28;20058;-72
2024/01/11 03:13:29;;;;;;;1.60;1.00;;;;;;;-2.65;70.84;97592.78;4955865;29;20111;-72
2024/01/11 03:15:55;;;;;;;2.53;1.33;;;;;;;-2.34;71.14;97629.53;4968027;28;20094;-72
2024/01/11 03:18:32;;;;;;;;;;;;;;;;;;;;;
2024/01/11 03:20:59;;;;;;;2.15;1.25;;;;;;;-3.00;70.88;97507.63;4967912;28;20063;-71
2024/01/11 03:23:30;;;;;;;0.90;0.77;;;;;;;-2.78;71.79;97534.13;4947705;29;20051;-72
2024/01/11 03:25:57;;;;;;;1.80;0.98;;;;;;;-2.21;71.29;97633.03;4939714;29;20039;-72
2024/01/11 03:28:23;;;;;;;1.98;0.70;;;;;;;-2.36;71.39;97587.91;4947208;29;20577;-73
2024/01/11 03:30:49;;;;;;;1.42;0.80;;;;;;;-2.28;71.24;97601.56;4952803;29;20047;-71
2024/01/11 03:33:15;;;;;;;4.97;2.00;;;;;;;-2.29;71.87;97576.06;4951201;28;20043;-72
2024/01/11 03:35:52;;;;;;;2.03;1.05;;;;;;;-2.32;72.00;97553.13;4943514;29;20046;-72
2024/01/11 03:38:29;;;;;;;2.28;1.52;;;;;;;-2.31;72.57;97545.47;4955072;29;20043;-72
2024/01/11 03:40:57;;;;;;;2.47;1.20;;;;;;;-2.01;71.90;97583.88;4955953;29;20165;-71
2024/01/11 03:43:23;;;;;;;5.97;1.00;;;;;;;-1.93;71.96;97576.28;4955108;29;20042;-71
2024/01/11 03:45:50;;;;;;;1.50;1.10;;;;;;;-1.78;71.96;97576.38;4968310;28;20038;-69
2024/01/11 03:48:16;;;;;;;3.50;1.45;;;;;;;-2.40;72.24;97461.34;4956117;29;20076;-69
2024/01/11 03:50:42;;;;;;;1.92;1.10;;;;;;;-2.19;72.72;97487.78;4966802;28;20116;-70
2024/01/11 03:53:11;;;;;;;0.82;0.70;;;;;;;-2.03;72.39;97509.97;4964894;28;20110;-71
2024/01/11 03:55:37;;;;;;;2.05;0.98;;;;;;;-1.67;72.78;97554.31;4968047;28;20039;-70
2024/01/11 03:58:04;;;;;;;3.58;1.15;;;;;;;-2.18;72.35;97469.97;4945865;29;20054;-72
2024/01/11 04:00:33;;;;;;;2.75;1.42;;;;;;;-1.54;73.07;97551.78;4950887;29;20099;-70
2024/01/11 04:03:03;;;;;;;2.88;1.35;;;;;;;-1.51;73.04;97544.16;4961220;28;20039;-71
2024/01/11 04:05:32;;;;;;;1.83;0.95;;;;;;;-1.44;73.23;97552.72;4966413;28;20059;-69
2024/01/11 04:07:58;;;;;;;2.65;1.35;;;;;;;-1.35;73.30;97544.22;4967302;28;20046;-70
2024/01/11 04:10:39;;;;;;;2.90;1.40;;;;;;;-1.56;72.86;97492.28;4966860;28;20059;-72
2024/01/11 04:13:06;;;;;;;;;;;;;;;-1.21;73.42;97538.28;4961088;28;20090;-74
2024/01/11 04:15:35;;;;;;;2.35;1.58;;;;;;;-1.60;73.36;97458.25;4964526;28;19922;-71
2024/01/11 04:18:07;;;;;;;1.73;1.15;;;;;;;-1.04;73.47;97541.72;4973943;28;20035;-73
2024/01/11 04:20:37;;;;;;;3.53;1.50;;;;;;;-1.07;73.34;97509.38;4970610;28;20046;-75
2024/01/11 04:23:11;;;;;;;2.72;0.95;;;;;;;-0.79;73.47;97524.72;4953126;29;20572;-75
2024/01/11 04:25:41;;;;;;;5.63;2.45;;;;;;;-0.66;73.75;97513.66;4967824;28;20039;-76
2024/01/11 04:28:13;;;;;;;;;;;;;;;-0.53;73.55;97518.75;4946740;29;20524;-76
2024/01/11 04:30:41;;;;;;;1.27;0.57;;;;;;;-0.66;73.58;97488.09;4967069;28;19926;-75
2024/01/11 04:33:08;;;;;;;0.57;0.40;;;;;;;-0.73;74.01;97462.56;4959765;28;20034;-75
2024/01/11 04:35:37;;;;;;;0.90;0.60;;;;;;;-0.66;73.84;97444.69;4969504;28;20035;-76
2024/01/11 04:38:06;;;;;;;0.50;0.43;;;;;;;-1.01;74.02;97399.63;4953916;28;20044;-77
2024/01/11 04:40:35;;;;;;;0.85;0.52;;;;;;;-0.94;73.77;97385.97;4973351;28;20130;-76
2024/01/11 04:43:09;;;;;;;0.95;0.63;;;;;;;-0.10;73.63;97480.31;4969781;28;20047;-74
2024/01/11 04:45:35;;;;;;;0.80;0.50;;;;;;;-0.97;73.52;97349.38;4959224;29;20067;-76
2024/01/11 04:48:04;;;;;;;0.80;0.50;;;;;;;-1.29;73.74;97268.59;4955772;29;20048;-75
2024/01/11 04:50:35;;;;;;;0.52;0.40;;;;;;;0.06;73.61;97473.44;4971327;28;20074;-73
2024/01/11 04:53:15;;;;;;;0.57;0.40;;;;;;;-0.19;73.38;97414.72;4969217;28;20046;-72
2024/01/11 04:55:41;;;;;;;0.30;0.30;;;;;;;-0.19;73.49;97403.66;4952415;28;20043;-74
2024/01/11 04:58:10;;;;;;;0.50;0.30;;;;;;;0.25;73.96;97456.31;4954619;29;20062;-75
2024/01/11 05:00:39;;;;;;;0.70;0.40;;;;;;;0.33;73.37;97484.41;4968132;28;20077;-74
2024/01/11 05:03:26;;;;;;;0.77;0.30;;;;;;;0.36;73.76;97456.25;4967518;28;20182;-75
2024/01/11 05:06:04;;;;;;;1.33;0.32;;;;;;;0.39;73.25;97437.47;4955051;29;20709;-75
2024/01/11 05:08:47;;;;;;;;;;;;;;;;;;;;;
2024/01/11 05:11:21;;;;;;;0.50;0.50;;;;;;;-0.07;73.76;97352.47;4945059;29;19922;-76
2024/01/11 05:13:53;;;;;;;0.47;0.40;;;;;;;0.60;72.83;97462.94;4950403;28;20051;-79
2024/01/11 05:16:54;;;;;;;0.70;0.40;;;;;;;-0.23;73.26;97325.28;4946343;29;20067;-78
2024/01/11 05:19:25;;;;;;;0.30;0.30;;;;;;;0.68;73.49;97444.97;4975322;28;20038;-75
2024/01/11 05:22:01;;;;;;;0.75;0.45;;;;;;;0.26;73.18;97385.53;4976867;28;20043;-75
2024/01/11 05:24:42;;;;;;;0.50;0.40;;;;;;;-0.25;73.00;97304.00;4991350;28;20069;-78
2024/01/11 05:27:14;;;;;;;1.25;0.40;;;;;;;-0.17;72.99;97325.25;4963567;28;20057;-74
2024/01/11 05:29:52;;;;;;;1.00;0.60;;;;;;;0.06;73.44;97357.53;4933240;28;20061;-75
2024/01/11 05:32:21;;;;;;;1.50;0.65;;;;;;;0.09;73.29;97347.28;4965197;28;20081;-77
2024/01/11 05:34:47;;;;;;;1.10;0.60;;;;;;;0.29;73.76;97394.03;4979324;28;20121;-75
2024/01/11 05:37:20;;;;;;;1.10;0.70;;;;;;;0.13;73.26;97339.56;4967438;28;20163;-76
2024/01/11 05:39:56;;;;;;;0.95;0.52;;;;;;;-0.42;73.31;97237.63;4965561;28;20138;-74
2024/01/11 05:42:37;;;;;;;;;;;;;;;;;;;;;
2024/01/11 05:45:16;;;;;;;0.85;0.57;;;;;;;0.92;72.69;97437.97;4975836;28;20062;-76
2024/01/11 05:47:46;;;;;;;0.85;0.60;;;;;;;0.68;73.21;97377.56;4975619;28;20489;-74
2024/01/11 05:50:26;;;;;;;0.80;0.60;;;;;;;1.02;73.05;97424.22;4969058;28;20043;-74
2024/01/11 05:53:00;;;;;;;2.00;0.73;;;;;;;0.42;73.66;97319.75;4961790;28;20046;-73
2024/01/11 05:55:26;;;;;;;2.03;0.80;;;;;;;0.90;73.06;97373.09;4959422;28;20496;-76
2024/01/11 05:57:58;;;;;;;3.45;1.02;;;;;;;0.40;73.35;97299.31;4929876;28;20190;-75
2024/01/11 06:00:29;;;;;;;1.25;0.73;;;;;;;1.10;73.27;97384.91;4978273;28;20344;-77
2024/01/11 06:02:57;;;;;;;2.50;0.90;;;;;;;1.13;73.24;97388.28;4949967;28;20058;-75
2024/01/11 06:05:45;;;;;;;0.93;0.50;;;;;;;0.84;73.08;97332.19;4959244;28;20039;-78
2024/01/11 06:08:21;;;;;;;1.17;1.00;;;;;;;1.20;73.16;97392.47;4945643;28;20050;-76
2024/01/11 06:11:04;;;;;;;1.98;0.90;;;;;;;1.07;73.56;97364.44;4975158;28;20046;-76
2024/01/11 06:13:40;;;;;;;2.38;0.75;;;;;;;0.75;73.38;97295.56;4974176;28;20096;-77
2024/01/11 06:16:09;;;;;;;0.65;0.60;;;;;;;0.63;73.22;97267.53;4955941;28;20047;-74
2024/01/11 06:18:36;;;;;;;0.82;0.65;;;;;;;1.45;73.34;97391.38;4956406;28;20078;-73
2024/01/11 06:21:02;;;;;;;1.83;0.70;;;;;;;1.38;73.22;97369.22;4972365;28;20058;-74
2024/01/11 06:23:28;;;;;;;1.58;0.88;;;;;;;1.06;73.16;97327.69;4953216;28;20047;-73
2024/01/11 06:25:54;;;;;;;2.17;0.77;;;;;;;1.18;73.21;97325.03;4941715;28;20046;-73
2024/01/11 06:28:20;;;;;;;1.75;0.90;;;;;;;1.33;72.55;97347.03;4935242;28;20137;-74
2024/01/11 06:30:54;;;;;;;1.25;0.82;;;;;;;1.56;73.37;97376.69;4954937;28;20038;-74
2024/01/11 06:33:23;;;;;;;3.95;1.58;;;;;;;1.33;73.26;97324.00;4972951;28;20687;-73
2024/01/11 06:35:52;;;;;;;2.40;1.10;;;;;;;1.54;73.11;97367.34;4973079;28;20034;-75
2024/01/11 06:38:18;;;;;;;3.20;1.27;;;;;;;0.77;73.41;97257.16;4969140;28;20043;-72
2024/01/11 06:40:47;;;;;;;1.20;1.00;;;;;;;0.94;73.10;97281.75;4971620;28;20046;-75
2024/01/11 06:43:21;;;;;;;2.10;1.50;;;;;;;1.34;72.70;97337.66;4957635;28;20578;-72
2024/01/11 06:45:47;;;;;;;2.72;1.52;;;;;;;1.45;72.90;97356.31;4972590;28;20049;-73
2024/01/11 06:48:16;;;;;;;3.15;1.55;;;;;;;1.34;72.57;97329.97;4965789;28;20136;-73
2024/01/11 06:50:42;;;;;;;4.05;1.33;;;;;;;1.65;73.00;97373.22;4965052;28;20042;-75
2024/01/11 06:53:14;;;;;;;;;;;;;;;1.71;73.28;97364.59;4972106;28;20046;-78
2024/01/11 06:55:59;;;;;;;;;;;;;;;;;;;;;
2024/01/11 06:58:28;;;;;;;1.52;0.95;;;;;;;1.71;73.10;97359.47;4965287;28;20070;-73
2024/01/11 07:00:58;;;;;;;5.93;1.13;;;;;;;1.65;73.25;97363.78;4954071;28;20089;-70
2024/01/11 07:03:23;;;;;;;4.18;1.10;;;;;;;1.64;73.16;97330.50;4967449;28;20098;-70
2024/01/11 07:05:49;;;;;;;1.70;0.93;;;;;;;1.79;73.36;97343.09;4970154;28;20522;-71
2024/01/11 07:08:21;;;;;;;2.97;1.20;;;;;;;1.70;72.98;97338.09;4974859;28;20057;-73
2024/01/11 07:10:56;;;;;;;;;;;;;;;1.83;73.13;97356.72;4974025;28;20038;-71
2024/01/11 07:13:36;;;;;;;4.97;2.70;;;;;;;1.89;72.97;97355.78;4962561;28;19917;-71
2024/01/11 07:16:25;;;;;;;3.67;1.67;;;;;;;1.67;72.88;97322.72;4955796;28;20039;-70
2024/01/11 07:18:56;;;;;;;4.68;1.35;;;;;;;1.23;72.77;97232.72;4943118;28;20137;-70
2024/01/11 07:22:00;;;;;;;4.30;1.70;;;;;;;1.18;72.83;97225.13;4952877;28;20420;-70
2024/01/11 07:24:37;;;;;;;9.48;1.27;;;;;;;1.78;72.66;97312.34;4974683;28;20074;-70
2024/01/11 07:27:09;;;;;;;4.05;2.25;;;;;;;2.05;72.57;97331.66;4960655;28;20039;-68
2024/01/11 07:29:37;;;;;;;2.42;1.50;;;;;;;2.13;73.17;97333.25;4970564;28;20043;-69
2024/01/11 07:32:05;;;;;;;7.57;1.88;;;;;;;1.97;72.85;97284.72;4967964;28;20062;-69
2024/01/11 07:34:33;;;;;;;4.35;1.50;;;;;;;1.71;72.71;97244.91;4970553;28;20047;-72
2024/01/11 07:37:25;;;;;;;5.13;1.45;;;;;;;2.01;72.60;97276.13;4966596;28;20463;-70
2024/01/11 07:39:55;;;;;;;2.50;1.48;;;;;;;2.25;72.67;97315.13;4984472;28;20045;-70
2024/01/11 07:42:24;;;;;;;2.35;1.40;;;;;;;2.27;72.76;97305.69;4972029;28;20520;-70
2024/01/11 07:44:53;;;;;;;1.58;1.00;;;;;;;2.24;72.80;97301.41;4971801;28;20110;-71
2024/01/11 07:47:24;;;;;;;;;;;;;;;2.43;72.23;97315.69;4971891;28;20097;-71
2024/01/11 07:49:52;;;;;;;4.35;1.75;;;;;;;2.43;72.30;97325.97;4976374;28;19925;-70
2024/01/11 07:52:18;;;;;;;3.47;2.20;;;;;;;2.26;72.37;97289.41;4956001;28;20053;-72
2024/01/11 07:54:47;;;;;;;2.85;1.60;;;;;;;2.32;72.17;97297.91;4975539;28;20042;-69
2024/01/11 07:57:15;;;;;;;4.13;2.03;;;;;;;2.27;72.50;97277.44;4974666;28;20044;-73
2024/01/11 07:59:44;;;;;;;6.00;2.85;;;;;;;2.34;72.48;97296.16;4981984;28;20086;-74
2024/01/11 08:02:20;;;;;;;5.68;3.15;;;;;;;2.24;71.71;97278.31;4966607;28;20046;-74
2024/01/11 08:04:48;;;;;;;5.65;3.10;;;;;;;2.11;72.09;97251.16;4977905;28;20057;-73
2024/01/11 08:07:18;;;;;;;2.67;1.75;;;;;;;2.39;71.99;97295.19;4961787;28;20146;-75
2024/01/11 08:09:47;;;;;;;2.53;1.42;;;;;;;2.41;72.16;97293.47;4971836;28;20043;-72
2024/01/11 08:12:25;;;;;;;3.90;1.67;;;;;;;2.45;72.38;97285.72;4957841;28;20039;-72
2024/01/11 08:14:51;;;;;;;2.38;1.83;;;;;;;2.41;72.17;97236.16;4980923;28;20031;-77
2024/01/11 08:17:34;;;;;;;4.13;1.50;;;;;;;2.74;71.86;97258.69;4985079;28;20548;-76
2024/01/11 08:20:21;;;;;;;3.55;1.45;;;;;;;2.75;71.99;97225.28;4988687;28;20045;-81
2024/01/11 08:22:47;;;;;;;4.90;1.45;;;;;;;2.58;71.35;97201.63;4981693;28;20051;-77
2024/01/11 08:25:30;;;;;;;2.22;1.60;;;;;;;2.60;71.39;97225.56;4988554;28;20069;-80
2024/01/11 08:27:56;;;;;;;4.65;1.25;;;;;;;2.77;71.68;97249.22;4966641;28;20039;-81
2024/01/11 08:30:28;;;;;;;10.57;1.65;;;;;;;2.70;71.61;97239.91;4971230;28;20023;-82
2024/01/11 08:33:26;;;;;;;3.13;1.48;;;;;;;2.51;71.32;97213.75;4982776;28;20039;-79
2024/01/11 08:36:03;;;;;;;5.05;2.15;;;;;;;2.92;71.93;97266.06;4961306;28;20026;-85
2024/01/11 08:38:55;;;;;;;2.53;1.50;;;;;;;2.82;71.21;97236.28;4964229;28;20046;-79
2024/01/11 08:41:21;;;;;;;1.50;1.30;;;;;;;2.58;71.59;97209.34;4980492;28;20132;-84
2024/01/11 08:43:53;;;;;;;3.72;1.33;;;;;;;2.84;71.24;97255.06;4976420;28;20049;-82
2024/01/11 08:46:30;;;;;;;;;;;;;;;2.81;70.99;97252.56;4989664;28;20062;-79
2024/01/11 08:49:14;;;;;;;3.38;1.30;;;;;;;2.82;71.35;97251.69;4981397;28;19958;-81
2024/01/11 08:51:41;;;;;;;3.05;1.42;;;;;;;2.80;71.40;97220.03;4983993;28;20042;-81
2024/01/11 08:54:22;;;;;;;3.05;1.20;;;;;;;2.89;71.58;97243.00;4972526;28;20034;-82
2024/01/11 08:57:01;;;;;;;6.05;1.15;;;;;;;2.76;70.73;97221.00;4983388;28;20042;-78
2024/01/11 08:59:36;;;;;;;3.38;1.30;;;;;;;2.64;70.56;97222.91;4961046;28;20039;-79
2024/01/11 09:02:28;;;;;;;3.80;1.30;;;;;;;2.61;71.41;97204.16;4949764;28;20065;-81
2024/01/11 09:04:53;;;;;;;7.45;3.25;;;;;;;2.50;71.02;97202.59;4995481;28;20047;-81
2024/01/11 09:07:34;;;;;;;2.50;1.42;;;;;;;1.70;70.97;97057.78;4963788;28;20039;-80
2024/01/11 09:10:05;;;;;;;2.05;1.17;;;;;;;2.66;71.38;97195.47;4981894;28;20053;-82
2024/01/11 09:12:38;;;;;;;2.05;0.98;;;;;;;2.70;71.31;97162.88;4983532;28;20039;-80
2024/01/11 09:15:04;;;;;;;1.60;1.10;;;;;;;2.61;70.68;97157.94;4981729;28;20071;-81
2024/01/11 09:17:37;;;;;;;1.88;1.10;;;;;;;2.85;70.59;97195.13;4967761;28;20042;-79
2024/01/11 09:20:09;;;;;;;3.20;1.60;;;;;;;2.75;70.63;97189.31;4988188;28;20053;-79
2024/01/11 09:22:35;;;;;;;2.00;1.45;;;;;;;2.38;70.81;97146.38;4982956;28;20029;-77
2024/01/11 09:25:03;;;;;;;1.13;0.90;;;;;;;2.37;69.93;97222.50;4965732;28;20034;-79
2024/01/11 09:27:54;;;;;;;2.22;0.57;;;;;;;2.00;70.42;97276.13;4965993;28;20043;-77
2024/01/11 09:30:20;;;;;;;1.52;0.80;;;;;;;1.90;70.30;97295.94;4980629;28;20042;-76
2024/01/11 09:32:56;;;;;;;1.90;1.20;;;;;;;1.76;70.93;97302.13;4981238;28;20054;-78
2024/01/11 09:35:26;;;;;;;2.20;1.80;;;;;;;1.70;71.51;97304.75;4981502;28;20046;-78
2024/01/11 09:37:52;;;;;;;3.88;1.40;;;;;;;1.13;71.06;97216.63;4980992;28;20031;-75
2024/01/11 09:40:22;;;;;;;2.60;1.10;;;;;;;1.16;70.91;97231.97;4947191;28;20039;-76
2024/01/11 09:42:57;;;;;;;2.08;1.13;;;;;;;1.38;70.78;97279.53;4969281;28;20071;-81
2024/01/11 09:45:25;;;;;;;3.30;0.95;;;;;;;0.84;70.26;97233.19;4986328;28;20094;-77
2024/01/11 09:48:02;;;;;;;2.97;1.00;;;;;;;0.63;71.26;97226.59;4967896;28;20042;-78
2024/01/11 09:50:32;;;;;;;4.03;1.17;;;;;;;0.86;70.59;97294.63;4979273;28;20038;-76
2024/01/11 09:53:23;;;;;;;3.53;1.73;;;;;;;0.97;71.09;97327.81;4981009;28;20047;-77
2024/01/11 09:55:52;;;;;;;4.15;1.90;;;;;;;0.67;72.00;97309.31;4976650;28;20799;-78
2024/01/11 09:58:22;;;;;;;3.40;1.60;;;;;;;0.90;71.81;97338.09;4978174;28;20046;-76
2024/01/11 10:00:59;;;;;;;4.18;1.95;;;;;;;0.36;72.05;97233.66;4979374;28;20035;-77
2024/01/11 10:03:46;;;;;;;3.83;1.80;;;;;;;0.89;72.19;97331.28;4982930;28;20046;-79
2024/01/11 10:06:27;;;;;;;4.00;1.85;;;;;;;0.53;72.27;97282.13;4979913;28;20069;-79
2024/01/11 10:08:59;;;;;;;;;;;;;;;0.98;72.60;97358.53;4970837;28;21951;-80
2024/01/11 10:11:34;;;;;;;1.60;1.27;;;;;;;0.47;72.23;97287.31;4985791;28;19922;-80
2024/01/11 10:14:08;;;;;;;2.08;0.90;;;;;;;0.84;72.33;97375.72;4965086;28;20042;-77
2024/01/11 10:16:39;;;;;;;2.15;1.00;;;;;;;0.19;72.69;97312.25;4963015;28;20059;-76
2024/01/11 10:19:05;;;;;;;1.50;0.95;;;;;;;0.65;72.90;97385.25;4965194;28;20046;-81
2024/01/11 10:21:43;;;;;;;1.85;1.10;;;;;;;0.39;72.53;97353.03;4968608;28;20039;-77
2024/01/11 10:24:09;;;;;;;3.17;1.20;;;;;;;0.13;73.47;97336.16;4966611;28;20058;-77
2024/01/11 10:26:36;;;;;;;2.47;1.20;;;;;;;0.36;73.20;97366.72;4978073;28;20035;-77
2024/01/11 10:29:18;;;;;;;2.15;1.45;;;;;;;0.10;72.78;97326.78;4963845;28;20046;-78
2024/01/11 10:32:09;;;;;;;3.25;1.10;;;;;;;-0.05;72.41;97316.66;4956720;29;20027;-81
2024/01/11 10:34:41;;;;;;;2.17;1.30;;;;;;;-0.13;73.59;97311.59;4944611;29;20050;-80
2024/01/11 10:37:10;;;;;;;1.63;1.13;;;;;;;0.24;72.67;97392.34;4954564;29;20051;-79
2024/01/11 10:39:50;;;;;;;1.77;1.23;;;;;;;-0.08;73.79;97348.19;4963688;29;20042;-78
2024/01/11 10:42:23;;;;;;;1.77;1.30;;;;;;;0.19;72.70;97419.69;4935852;29;20102;-79
2024/01/11 10:44:57;;;;;;;4.82;1.20;;;;;;;-0.50;72.96;97348.41;4978852;28;20039;-78
2024/01/11 10:47:35;;;;;;;1.33;1.20;;;;;;;0.09;73.59;97445.31;4967194;29;20047;-80
2024/01/11 10:50:10;;;;;;;4.78;1.40;;;;;;;-0.42;74.22;97373.94;4976410;28;20043;-77
2024/01/11 10:52:45;;;;;;;2.15;1.35;;;;;;;-0.19;74.30;97413.88;4949128;29;20043;-80
2024/01/11 10:55:16;;;;;;;2.08;1.67;;;;;;;0.01;73.57;97462.38;4951445;29;20058;-80
2024/01/11 10:57:49;;;;;;;1.58;1.17;;;;;;;0.04;73.75;97466.66;4962863;28;20039;-82
2024/01/11 11:00:18;;;;;;;1.65;1.17;;;;;;;-0.62;73.67;97363.75;4963320;29;20043;-82
2024/01/11 11:03:18;;;;;;;2.70;1.20;;;;;;;-0.38;73.57;97407.97;4960317;28;20099;-78
2024/01/11 11:05:52;;;;;;;5.10;1.27;;;;;;;-0.41;73.43;97424.19;4949339;29;20078;-75
2024/01/11 11:08:25;;;;;;;3.10;1.55;;;;;;;-0.25;73.93;97468.44;4935054;29;20043;-77
2024/01/11 11:14:09;;;;;;;4.95;1.95;;;;;;;-1.26;73.41;97370.69;5138493;23;20052;-80
2024/01/11 11:16:42;;;;;;;7.28;2.35;;;;;;;-1.33;73.67;97364.75;4920043;29;20039;-80
2024/01/11 11:19:18;;;;;;;4.20;1.60;;;;;;;-1.49;73.59;97353.69;4925757;29;20040;-80
2024/01/11 11:22:15;;;;;;;3.05;1.70;;;;;;;-0.97;73.50;97447.25;4904881;29;20051;-80
2024/01/11 11:24:41;;;;;;;2.63;1.70;;;;;;;-0.94;73.44;97444.69;4897871;29;20052;-81
2024/01/11 11:28:13;;;;;;;5.28;1.65;;;;;;;-0.41;73.74;97558.75;4903084;29;20049;-79
2024/01/11 11:30:47;;;;;;;2.05;1.35;;;;;;;-0.60;72.97;97576.66;4925122;29;20072;-82
2024/01/11 11:36:49;;;;;;;1.50;1.10;;;;;;;-1.82;73.39;97432.69;4917610;29;20052;-84
2024/01/11 11:42:24;;;;;;;2.03;1.20;;;;;;;-2.02;73.09;97437.75;5245547;23;20063;-78
2024/01/11 11:44:51;;;;;;;1.52;1.10;;;;;;;-1.79;73.57;97512.59;4926600;29;20043;-79
2024/01/11 11:47:34;;;;;;;3.15;1.48;;;;;;;-2.02;73.11;97495.50;4926829;29;20087;-78
2024/01/11 11:50:09;;;;;;;3.22;1.95;;;;;;;-1.59;72.90;97597.69;4909229;29;20179;-78
2024/01/11 11:52:52;;;;;;;8.18;1.98;;;;;;;-2.17;73.20;97512.44;4926144;29;20086;-80
2024/01/11 11:55:41;;;;;;;4.25;1.92;;;;;;;-1.61;72.73;97645.31;4941647;29;20036;-74
2024/01/11 11:58:24;;;;;;;4.25;1.90;;;;;;;-1.57;73.02;97659.78;4924779;29;20043;-71
2024/01/11 12:00:54;;;;;;;3.42;1.73;;;;;;;-2.08;73.03;97605.06;4908603;29;20039;-78
2024/01/11 12:03:31;;;;;;;2.78;1.88;;;;;;;-2.52;71.41;97594.56;4927341;29;20050;-82
2024/01/11 12:06:11;;;;;;;4.03;2.00;;;;;;;-2.38;72.70;97630.34;4925372;29;20043;-74
2024/01/11 12:08:41;;;;;;;2.45;1.40;;;;;;;-2.38;72.58;97665.19;4930695;29;20051;-80
2024/01/11 12:11:54;;;;;;;2.15;1.38;;;;;;;-3.22;72.49;97580.38;4946576;29;20059;-82
2024/01/11 12:14:25;;;;;;;3.60;1.83;;;;;;;-2.50;72.13;97738.09;4918611;29;20050;-83
2024/01/11 12:17:00;;;;;;;2.40;1.40;;;;;;;-2.54;72.77;97751.66;4932817;29;20525;-81
2024/01/11 12:19:26;;;;;;;2.22;1.50;;;;;;;-3.01;72.21;97708.69;4921069;29;20040;-80